createdAt,value
2023-03-24T00:01:42.627Z,4.10
2023-03-24T00:03:48.804Z,4.05
2023-03-24T00:05:58.516Z,3.47
2023-03-24T00:08:02.654Z,3.65
2023-03-24T00:10:09.900Z,3.85
2023-03-24T00:12:18.543Z,3.35
2023-03-24T00:14:22.127Z,3.50
2023-03-24T00:16:27.116Z,3.28
2023-03-24T00:18:30.880Z,3.10
2023-03-24T00:20:35.044Z,2.90
2023-03-24T00:22:42.319Z,3.47
2023-03-24T00:24:46.807Z,3.22
2023-03-24T00:26:51.952Z,3.30
2023-03-24T00:28:57.200Z,2.80
2023-03-24T00:31:03.317Z,3.10
2023-03-24T00:33:08.276Z,3.35
2023-03-24T00:35:13.979Z,2.97
2023-03-24T00:37:17.610Z,3.08
2023-03-24T00:39:22.007Z,3.17
2023-03-24T00:41:27.346Z,2.50
2023-03-24T00:43:31.198Z,3.15
2023-03-24T00:45:34.786Z,2.97
2023-03-24T00:47:38.616Z,2.92
2023-03-24T00:49:44.756Z,2.80
2023-03-24T00:51:48.230Z,3.10
2023-03-24T00:53:57.872Z,2.97
2023-03-24T00:56:01.358Z,2.88
2023-03-24T00:58:05.264Z,2.72
2023-03-24T01:00:14.384Z,2.72
2023-03-24T01:02:22.300Z,2.78
2023-03-24T01:04:26.487Z,3.15
2023-03-24T01:06:31.521Z,3.15
2023-03-24T01:08:35.225Z,3.38
2023-03-24T01:10:50.204Z,3.10
2023-03-24T01:12:55.033Z,3.28
2023-03-24T01:14:59.996Z,3.00
2023-03-24T01:17:03.717Z,3.20
2023-03-24T01:19:09.293Z,3.20
2023-03-24T01:21:14.436Z,3.38
2023-03-24T01:23:23.926Z,3.28
2023-03-24T01:25:28.102Z,3.30
2023-03-24T01:27:32.084Z,3.22
2023-03-24T01:29:35.674Z,3.15
2023-03-24T01:31:39.352Z,3.60
2023-03-24T01:33:42.896Z,3.70
2023-03-24T01:35:46.798Z,3.28
2023-03-24T01:37:50.433Z,3.45
2023-03-24T01:39:55.411Z,3.45
2023-03-24T01:41:59.027Z,3.45
2023-03-24T01:44:03.112Z,3.58
2023-03-24T01:46:16.451Z,3.78
2023-03-24T01:48:26.234Z,3.58
2023-03-24T01:50:30.112Z,3.60
2023-03-24T01:52:37.249Z,3.70
2023-03-24T01:54:44.097Z,3.42
2023-03-24T01:56:55.667Z,3.33
2023-03-24T01:59:02.743Z,3.35
2023-03-24T02:01:30.169Z,3.72
2023-03-24T02:03:48.140Z,3.63
2023-03-24T02:05:54.586Z,3.38
2023-03-24T02:08:06.017Z,3.85
2023-03-24T02:10:13.494Z,3.90
2023-03-24T02:12:18.369Z,3.80
2023-03-24T02:14:22.646Z,4.30
2023-03-24T02:16:39.180Z,4.45
2023-03-24T02:18:54.909Z,4.25
2023-03-24T02:21:33.415Z,4.60
2023-03-24T02:23:57.215Z,3.80
2023-03-24T02:26:32.117Z,3.75
2023-03-24T02:28:44.468Z,3.95
2023-03-24T02:31:16.181Z,3.88
2023-03-24T02:36:26.297Z,3.80
2023-03-24T02:39:17.342Z,3.67
2023-03-24T02:41:32.321Z,4.00
2023-03-24T02:43:48.927Z,4.20
2023-03-24T02:46:07.016Z,4.00
2023-03-24T02:48:24.634Z,4.10
2023-03-24T02:50:33.247Z,4.40
2023-03-24T02:52:46.215Z,4.10
2023-03-24T02:54:57.507Z,3.75
2023-03-24T02:57:06.998Z,4.25
2023-03-24T02:59:37.580Z,3.75
2023-03-24T03:01:57.747Z,4.32
2023-03-24T03:04:12.670Z,3.63
2023-03-24T03:06:22.141Z,4.38
2023-03-24T03:08:29.754Z,3.97
2023-03-24T03:10:38.469Z,4.00
2023-03-24T03:12:48.099Z,3.85
2023-03-24T03:14:56.076Z,4.05
2023-03-24T03:17:04.913Z,3.70
2023-03-24T03:19:18.144Z,4.10
2023-03-24T03:21:27.097Z,4.35
2023-03-24T03:23:35.913Z,4.28
2023-03-24T03:25:46.434Z,3.45
2023-03-24T03:27:54.581Z,3.85
2023-03-24T03:30:03.213Z,3.85
2023-03-24T03:32:10.823Z,3.63
2023-03-24T03:34:22.114Z,3.50
2023-03-24T03:36:30.917Z,3.65
2023-03-24T03:38:49.183Z,3.60
2023-03-24T03:40:54.368Z,3.85
2023-03-24T03:43:01.853Z,3.90
2023-03-24T03:45:07.091Z,3.95
2023-03-24T03:47:10.530Z,4.28
2023-03-24T03:49:19.874Z,3.85
2023-03-24T03:51:23.586Z,4.25
2023-03-24T03:53:40.348Z,4.20
2023-03-24T03:55:45.555Z,4.03
2023-03-24T03:57:49.772Z,4.35
2023-03-24T04:00:20.009Z,3.92
2023-03-24T04:02:52.686Z,3.60
2023-03-24T04:05:29.326Z,3.60
2023-03-24T04:08:03.766Z,3.78
2023-03-24T04:10:47.709Z,3.75
2023-03-24T04:13:15.190Z,3.70
2023-03-24T04:15:47.962Z,3.67
2023-03-24T04:18:31.694Z,4.30
2023-03-24T04:20:47.557Z,4.00
2023-03-24T04:23:03.180Z,3.80
2023-03-24T04:25:16.937Z,3.67
2023-03-24T04:27:28.938Z,4.35
2023-03-24T04:29:42.752Z,3.75
2023-03-24T04:31:53.575Z,4.45
2023-03-24T04:34:03.703Z,3.95
2023-03-24T04:36:18.260Z,3.90
2023-03-24T04:38:42.764Z,3.92
2023-03-24T04:40:55.647Z,3.70
2023-03-24T04:43:01.602Z,4.25
2023-03-24T04:45:08.157Z,3.83
2023-03-24T04:47:38.644Z,3.90
2023-03-24T04:50:02.051Z,3.72
2023-03-24T04:52:06.877Z,3.92
2023-03-24T04:54:11.423Z,3.90
2023-03-24T04:56:39.876Z,4.10
2023-03-24T04:59:07.160Z,4.10
2023-03-24T05:01:10.891Z,4.00
2023-03-24T05:03:20.334Z,4.07
2023-03-24T05:05:23.667Z,4.45
2023-03-24T05:07:27.294Z,4.10
2023-03-24T05:09:34.662Z,4.28
2023-03-24T05:11:38.870Z,4.10
2023-03-24T05:13:46.940Z,4.30
2023-03-24T05:15:51.125Z,4.28
2023-03-24T05:18:08.984Z,4.40
2023-03-24T05:20:15.230Z,4.32
2023-03-24T05:22:21.883Z,4.30
2023-03-24T05:24:25.230Z,4.38
2023-03-24T05:26:29.975Z,4.50
2023-03-24T05:28:41.667Z,4.50
2023-03-24T05:30:45.016Z,4.40
2023-03-24T05:33:05.744Z,4.10
2023-03-24T05:35:09.882Z,4.10
2023-03-24T05:37:16.988Z,4.25
2023-03-24T05:39:24.583Z,4.07
2023-03-24T05:41:42.289Z,4.22
2023-03-24T05:43:45.568Z,4.22
2023-03-24T05:45:51.467Z,4.20
2023-03-24T05:48:07.554Z,3.85
2023-03-24T05:50:29.058Z,3.60
2023-03-24T05:52:33.787Z,4.15
2023-03-24T05:54:53.050Z,3.83
2023-03-24T05:57:00.138Z,4.07
2023-03-24T05:59:11.862Z,3.80
2023-03-24T06:01:35.836Z,3.55
2023-03-24T06:03:52.811Z,3.80
2023-03-24T06:05:56.117Z,4.13
2023-03-24T06:08:01.534Z,3.90
2023-03-24T06:10:10.339Z,4.10
2023-03-24T06:12:21.956Z,4.00
2023-03-24T06:14:34.807Z,3.70
2023-03-24T06:16:44.294Z,3.85
2023-03-24T06:18:52.547Z,3.40
2023-03-24T06:21:18.550Z,3.75
2023-03-24T06:23:25.972Z,3.53
2023-03-24T06:25:50.844Z,3.42
2023-03-24T06:28:04.270Z,4.03
2023-03-24T06:30:11.018Z,3.10
2023-03-24T06:32:14.273Z,3.25
2023-03-24T06:34:18.871Z,3.08
2023-03-24T06:36:35.780Z,3.25
2023-03-24T06:38:41.980Z,2.92
2023-03-24T06:40:45.523Z,2.95
2023-03-24T06:42:49.626Z,2.72
2023-03-24T06:44:53.216Z,3.03
2023-03-24T06:46:56.697Z,2.63
2023-03-24T06:48:59.887Z,2.80
2023-03-24T06:51:03.221Z,2.75
2023-03-24T06:53:06.558Z,3.00
2023-03-24T06:55:13.714Z,2.80
2023-03-24T06:57:17.975Z,2.97
2023-03-24T06:59:45.034Z,2.67
2023-03-24T07:01:49.578Z,2.67
2023-03-24T07:03:59.291Z,2.65
2023-03-24T07:06:19.616Z,2.67
2023-03-24T07:08:37.400Z,2.90
2023-03-24T07:10:43.414Z,3.13
2023-03-24T07:12:48.092Z,5.22
2023-03-24T07:14:52.053Z,4.05
2023-03-24T07:16:55.294Z,2.60
2023-03-24T07:19:15.431Z,1.70
2023-03-24T07:21:22.187Z,1.50
2023-03-24T07:23:28.042Z,1.45
2023-03-24T07:25:41.268Z,1.60
2023-03-24T07:27:57.484Z,1.50
2023-03-24T07:30:01.398Z,1.60
2023-03-24T07:32:15.719Z,1.42
2023-03-24T07:34:19.276Z,1.40
2023-03-24T07:36:22.606Z,1.50
2023-03-24T07:38:25.985Z,1.67
2023-03-24T07:40:35.066Z,1.55
2023-03-24T07:42:38.648Z,1.48
2023-03-24T07:45:03.535Z,1.45
2023-03-24T07:47:06.913Z,1.58
2023-03-24T07:49:18.862Z,1.45
2023-03-24T07:51:28.430Z,1.50
2023-03-24T07:53:50.183Z,1.13
2023-03-24T07:56:16.113Z,1.60
2023-03-24T07:58:28.244Z,1.50
2023-03-24T08:00:51.269Z,1.58
2023-03-24T08:03:15.547Z,1.65
2023-03-24T08:05:19.899Z,1.48
2023-03-24T08:07:43.093Z,1.70
2023-03-24T08:09:46.422Z,1.70
2023-03-24T08:11:49.665Z,1.67
2023-03-24T08:13:52.896Z,1.90
2023-03-24T08:15:57.553Z,1.60
2023-03-24T08:18:00.937Z,2.13
2023-03-24T08:20:13.112Z,1.65
2023-03-24T08:22:16.385Z,1.95
2023-03-24T08:24:20.011Z,1.67
2023-03-24T08:26:27.000Z,1.92
2023-03-24T08:28:30.312Z,1.58
2023-03-24T08:30:33.562Z,2.10
2023-03-24T08:32:38.752Z,1.50
2023-03-24T08:34:42.006Z,1.73
2023-03-24T08:36:45.141Z,1.45
2023-03-24T08:38:48.405Z,1.77
2023-03-24T08:40:53.217Z,2.05
2023-03-24T08:42:58.673Z,1.80
2023-03-24T08:45:01.861Z,1.58
2023-03-24T08:47:05.251Z,2.20
2023-03-24T08:49:10.079Z,2.10
2023-03-24T08:51:14.672Z,1.67
2023-03-24T08:53:17.988Z,2.15
2023-03-24T08:55:22.102Z,1.90
2023-03-24T08:57:25.698Z,1.80
2023-03-24T08:59:29.430Z,1.95
2023-03-24T09:01:34.070Z,1.70
2023-03-24T09:03:39.899Z,2.03
2023-03-24T09:05:45.084Z,2.10
2023-03-24T09:07:50.001Z,2.35
2023-03-24T09:09:53.146Z,2.17
2023-03-24T09:11:56.305Z,2.40
2023-03-24T09:13:59.499Z,2.28
2023-03-24T09:16:04.669Z,2.17
2023-03-24T09:18:08.286Z,2.20
2023-03-24T09:20:13.783Z,1.85
2023-03-24T09:22:18.449Z,2.40
2023-03-24T09:24:21.795Z,1.63
2023-03-24T09:26:24.937Z,1.70
2023-03-24T09:28:28.183Z,1.92
2023-03-24T09:30:32.670Z,2.10
2023-03-24T09:32:37.436Z,1.90
2023-03-24T09:34:40.820Z,2.63
2023-03-24T09:36:43.996Z,2.13
2023-03-24T09:38:48.774Z,2.05
2023-03-24T09:40:56.206Z,2.13
2023-03-24T09:43:04.326Z,2.00
2023-03-24T09:45:14.339Z,1.90
2023-03-24T09:47:26.606Z,2.10
2023-03-24T09:49:32.637Z,1.70
2023-03-24T09:51:40.961Z,2.20
2023-03-24T09:53:51.046Z,2.00
2023-03-24T09:55:54.309Z,1.63
2023-03-24T09:58:01.925Z,2.10
2023-03-24T10:00:18.438Z,1.90
2023-03-24T10:02:23.589Z,2.33
2023-03-24T10:04:32.098Z,1.67
2023-03-24T10:06:40.118Z,1.80
2023-03-24T10:08:48.090Z,1.80
2023-03-24T10:11:00.032Z,2.30
2023-03-24T10:13:08.107Z,2.08
2023-03-24T10:15:30.898Z,2.13
2023-03-24T10:17:48.110Z,2.08
2023-03-24T10:20:00.203Z,2.20
2023-03-24T10:22:12.926Z,1.98
2023-03-24T10:24:24.810Z,2.42
2023-03-24T10:26:41.392Z,2.20
2023-03-24T10:28:51.148Z,2.20
2023-03-24T10:30:58.905Z,2.10
2023-03-24T10:33:02.648Z,1.77
2023-03-24T10:35:10.055Z,1.95
2023-03-24T10:37:15.695Z,2.58
2023-03-24T10:39:22.415Z,1.92
2023-03-24T10:41:30.690Z,1.73
2023-03-24T10:43:35.371Z,2.45
2023-03-24T10:45:42.087Z,1.83
2023-03-24T10:47:45.975Z,1.83
2023-03-24T10:49:55.013Z,1.80
2023-03-24T10:52:03.924Z,1.65
2023-03-24T10:54:17.036Z,2.10
2023-03-24T10:56:39.623Z,2.42
2023-03-24T10:58:45.489Z,1.95
2023-03-24T11:00:50.263Z,1.85
2023-03-24T11:02:59.050Z,2.13
2023-03-24T11:05:05.385Z,2.42
2023-03-24T11:07:16.533Z,2.00
2023-03-24T11:09:21.748Z,2.00
2023-03-24T11:11:31.884Z,2.08
2023-03-24T11:13:35.897Z,2.42
2023-03-24T11:15:54.538Z,2.13
2023-03-24T11:17:59.328Z,2.58
2023-03-24T11:20:05.949Z,2.60
2023-03-24T11:22:12.503Z,1.60
2023-03-24T11:24:18.083Z,2.08
2023-03-24T11:26:23.834Z,2.53
2023-03-24T11:28:28.785Z,2.20
2023-03-24T11:30:36.181Z,2.30
2023-03-24T11:32:47.461Z,1.80
2023-03-24T11:34:57.632Z,1.92
2023-03-24T11:37:03.554Z,1.92
2023-03-24T11:39:13.035Z,1.70
2023-03-24T11:41:22.671Z,2.00
2023-03-24T11:43:27.214Z,2.10
2023-03-24T11:45:39.192Z,2.00
2023-03-24T11:47:44.519Z,2.17
2023-03-24T11:49:52.733Z,2.15
2023-03-24T11:51:57.137Z,2.50
2023-03-24T11:54:03.382Z,2.00
2023-03-24T11:56:14.352Z,2.30
2023-03-24T11:58:28.088Z,2.33
2023-03-24T12:00:35.084Z,2.30
2023-03-24T12:02:53.823Z,2.60
2023-03-24T12:05:21.789Z,2.22
2023-03-24T12:08:01.071Z,2.80
2023-03-24T12:10:19.086Z,2.53
2023-03-24T12:12:33.597Z,2.42
2023-03-24T12:14:52.914Z,2.15
2023-03-24T12:17:06.736Z,2.17
2023-03-24T12:19:35.649Z,2.28
2023-03-24T12:21:50.611Z,2.05
2023-03-24T12:23:59.791Z,2.45
2023-03-24T12:26:21.449Z,2.42
2023-03-24T12:28:38.831Z,2.30
2023-03-24T12:30:48.567Z,2.67
2023-03-24T12:33:01.382Z,2.35
2023-03-24T12:35:38.955Z,2.55
2023-03-24T12:37:50.553Z,2.47
2023-03-24T12:40:06.470Z,2.30
2023-03-24T12:42:12.681Z,2.42
2023-03-24T12:44:45.054Z,1.90
2023-03-24T12:46:56.650Z,1.95
2023-03-24T12:49:15.226Z,2.00
2023-03-24T12:51:31.377Z,2.30
2023-03-24T12:53:47.155Z,2.00
2023-03-24T12:55:54.169Z,1.98
2023-03-24T12:58:02.009Z,2.55
2023-03-24T13:00:12.670Z,2.08
2023-03-24T13:02:24.926Z,2.25
2023-03-24T13:04:33.571Z,1.90
2023-03-24T13:06:44.885Z,2.08
2023-03-24T13:09:15.111Z,2.83
2023-03-24T13:11:32.645Z,2.00
2023-03-24T13:13:39.474Z,2.35
2023-03-24T13:15:46.329Z,1.92
2023-03-24T13:17:54.816Z,2.30
2023-03-24T13:19:59.269Z,2.03
2023-03-24T13:22:07.855Z,2.05
2023-03-24T13:24:15.303Z,2.15
2023-03-24T13:26:28.016Z,2.50
2023-03-24T13:28:38.458Z,2.15
2023-03-24T13:30:43.765Z,2.20
2023-03-24T13:32:51.650Z,2.22
2023-03-24T13:34:59.341Z,1.92
2023-03-24T13:37:06.662Z,2.25
2023-03-24T13:39:15.287Z,2.00
2023-03-24T13:41:21.272Z,2.17
2023-03-24T13:43:30.271Z,1.88
2023-03-24T13:45:41.885Z,1.77
2023-03-24T13:47:51.726Z,2.30
2023-03-24T13:50:00.988Z,2.65
2023-03-24T13:52:08.522Z,2.10
2023-03-24T13:54:17.482Z,2.00
2023-03-24T13:56:27.341Z,2.00
2023-03-24T13:58:48.626Z,2.30
2023-03-24T14:01:18.164Z,1.92
2023-03-24T14:03:33.991Z,2.22
2023-03-24T14:05:59.429Z,1.92
2023-03-24T14:08:16.137Z,1.77
2023-03-24T14:10:38.928Z,1.85
2023-03-24T14:12:53.997Z,2.13
2023-03-24T14:15:19.362Z,1.75
2023-03-24T14:17:23.556Z,2.15
2023-03-24T14:19:39.199Z,1.95
2023-03-24T14:21:42.683Z,1.80
2023-03-24T14:23:49.469Z,1.52
2023-03-24T14:25:55.742Z,1.67
2023-03-24T14:28:20.777Z,1.77
2023-03-24T14:30:28.332Z,1.90
2023-03-24T14:32:38.089Z,1.80
2023-03-24T14:34:52.615Z,1.73
2023-03-24T14:37:01.454Z,2.10
2023-03-24T14:39:13.260Z,2.13
2023-03-24T14:41:23.322Z,1.98
2023-03-24T14:43:28.548Z,1.80
2023-03-24T14:45:43.557Z,1.90
2023-03-24T14:47:47.183Z,1.83
2023-03-24T14:49:53.564Z,2.00
2023-03-24T14:52:02.203Z,2.40
2023-03-24T14:54:08.537Z,1.90
2023-03-24T14:56:18.217Z,2.03
2023-03-24T14:58:24.869Z,2.20
2023-03-24T15:00:34.382Z,2.00
2023-03-24T15:02:41.940Z,1.63
2023-03-24T15:05:22.574Z,2.13
2023-03-24T15:07:26.146Z,1.52
2023-03-24T15:09:29.472Z,2.33
2023-03-24T15:11:35.894Z,1.52
2023-03-24T15:13:42.161Z,1.85
2023-03-24T15:15:48.797Z,1.70
2023-03-24T15:17:53.264Z,1.80
2023-03-24T15:19:56.580Z,2.05
2023-03-24T15:22:02.679Z,2.00
2023-03-24T15:24:27.763Z,1.98
2023-03-24T15:26:33.328Z,2.00
2023-03-24T15:28:36.844Z,1.92
2023-03-24T15:30:40.193Z,1.60
2023-03-24T15:32:46.297Z,2.00
2023-03-24T15:34:52.752Z,2.08
2023-03-24T15:36:57.432Z,2.25
2023-03-24T15:39:00.757Z,1.73
2023-03-24T15:41:06.814Z,1.63
2023-03-24T15:43:20.375Z,1.92
2023-03-24T15:45:27.497Z,2.00
2023-03-24T15:47:33.661Z,1.80
2023-03-24T15:49:39.751Z,1.58
2023-03-24T15:51:50.671Z,1.90
2023-03-24T15:53:59.090Z,1.85
2023-03-24T15:56:06.703Z,1.95
2023-03-24T15:58:25.507Z,1.63
2023-03-24T16:00:32.248Z,1.75
2023-03-24T16:02:39.183Z,2.45
2023-03-24T16:04:42.605Z,2.10
2023-03-24T16:06:52.866Z,2.03
2023-03-24T16:09:01.302Z,1.80
2023-03-24T16:11:08.080Z,1.98
2023-03-24T16:13:19.463Z,2.40
2023-03-24T16:15:24.331Z,1.80
2023-03-24T16:17:27.845Z,2.15
2023-03-24T16:19:31.437Z,2.45
2023-03-24T16:21:34.596Z,1.80
2023-03-24T16:23:37.807Z,1.90
2023-03-24T16:25:41.532Z,2.25
2023-03-24T16:27:44.695Z,2.20
2023-03-24T16:29:47.941Z,2.00
2023-03-24T16:31:54.162Z,2.00
2023-03-24T16:33:58.243Z,2.30
2023-03-24T16:36:01.889Z,2.13
2023-03-24T16:38:05.249Z,2.63
2023-03-24T16:40:21.289Z,2.42
2023-03-24T16:42:24.438Z,2.30
2023-03-24T16:44:27.773Z,2.08
2023-03-24T16:46:33.802Z,1.95
2023-03-24T16:48:38.435Z,2.38
2023-03-24T16:50:43.228Z,2.35
2023-03-24T16:52:46.440Z,2.40
2023-03-24T16:54:50.549Z,2.28
2023-03-24T16:56:53.725Z,2.30
2023-03-24T16:58:57.338Z,2.30
2023-03-24T17:01:01.669Z,2.03
2023-03-24T17:03:06.021Z,2.00
2023-03-24T17:05:20.720Z,2.20
2023-03-24T17:07:23.960Z,2.00
2023-03-24T17:09:28.613Z,2.20
2023-03-24T17:11:35.041Z,2.20
2023-03-24T17:13:38.309Z,1.90
2023-03-24T17:15:41.666Z,1.98
2023-03-24T17:17:45.617Z,2.50
2023-03-24T17:19:49.112Z,3.05
2023-03-24T17:21:59.175Z,2.33
2023-03-24T17:24:05.229Z,2.00
2023-03-24T17:26:08.617Z,2.10
2023-03-24T17:28:15.044Z,2.47
2023-03-24T17:30:20.868Z,1.90
2023-03-24T17:32:29.981Z,1.95
2023-03-24T17:34:33.887Z,2.10
2023-03-24T17:36:37.592Z,1.90
2023-03-24T17:38:43.535Z,1.95
2023-03-24T17:40:47.674Z,2.10
2023-03-24T17:42:51.806Z,2.15
2023-03-24T17:44:55.191Z,1.67
2023-03-24T17:46:58.534Z,1.50
2023-03-24T17:49:01.699Z,2.08
2023-03-24T17:51:05.817Z,1.90
2023-03-24T17:53:19.994Z,1.70
2023-03-24T17:55:25.090Z,1.95
2023-03-24T17:57:28.381Z,2.10
2023-03-24T17:59:31.573Z,1.83
2023-03-24T18:01:39.393Z,2.10
2023-03-24T18:03:43.046Z,2.15
2023-03-24T18:05:46.664Z,1.85
2023-03-24T18:07:49.926Z,2.10
2023-03-24T18:09:53.100Z,2.20
2023-03-24T18:11:58.542Z,2.45
2023-03-24T18:14:02.130Z,3.13
2023-03-24T18:16:19.929Z,2.60
2023-03-24T18:18:24.652Z,3.15
2023-03-24T18:20:28.095Z,2.13
2023-03-24T18:22:31.347Z,2.50
2023-03-24T18:25:03.844Z,1.90
2023-03-24T18:27:11.728Z,2.10
2023-03-24T18:29:15.760Z,1.73
2023-03-24T18:31:21.776Z,2.10
2023-03-24T18:33:25.469Z,1.98
2023-03-24T18:35:29.535Z,1.73
2023-03-24T18:37:33.227Z,2.17
2023-03-24T18:39:36.793Z,2.92
2023-03-24T18:41:41.073Z,2.20
2023-03-24T18:43:47.875Z,2.00
2023-03-24T18:45:51.719Z,1.40
2023-03-24T18:47:55.173Z,1.50
2023-03-24T18:49:58.514Z,1.90
2023-03-24T18:52:01.754Z,2.00
2023-03-24T18:54:05.703Z,2.05
2023-03-24T18:56:09.641Z,2.17
2023-03-24T18:58:15.275Z,1.80
2023-03-24T19:00:21.790Z,1.90
2023-03-24T19:02:25.127Z,1.88
2023-03-24T19:04:28.404Z,2.03
2023-03-24T19:06:32.065Z,1.90
2023-03-24T19:08:37.851Z,1.80
2023-03-24T19:10:42.898Z,2.08
2023-03-24T19:12:46.405Z,1.90
2023-03-24T19:14:49.757Z,1.95
2023-03-24T19:16:54.347Z,2.08
2023-03-24T19:18:58.602Z,2.17
2023-03-24T19:21:02.168Z,1.60
2023-03-24T19:23:05.732Z,1.80
2023-03-24T19:25:09.495Z,2.03
2023-03-24T19:27:12.724Z,1.85
2023-03-24T19:29:16.381Z,1.70
2023-03-24T19:31:21.379Z,1.75
2023-03-24T19:33:26.701Z,2.10
2023-03-24T19:35:31.434Z,2.47
2023-03-24T19:37:34.993Z,3.60
2023-03-24T19:39:39.531Z,2.15
2023-03-24T19:41:42.922Z,1.90
2023-03-24T19:43:46.401Z,2.05
2023-03-24T19:45:51.287Z,2.58
2023-03-24T19:47:54.699Z,1.92
2023-03-24T19:49:59.374Z,1.83
2023-03-24T19:52:03.941Z,2.17
2023-03-24T19:54:07.210Z,2.17
2023-03-24T19:56:10.772Z,1.85
2023-03-24T19:58:14.025Z,1.90
2023-03-24T20:00:17.648Z,1.60
2023-03-24T20:02:22.099Z,2.28
2023-03-24T20:04:25.366Z,1.80
2023-03-24T20:06:30.298Z,1.90
2023-03-24T20:08:33.679Z,1.80
2023-03-24T20:10:38.588Z,1.90
2023-03-24T20:12:41.876Z,2.30
2023-03-24T20:14:45.097Z,2.17
2023-03-24T20:16:48.313Z,2.47
2023-03-24T20:18:51.546Z,1.65
2023-03-24T20:20:56.367Z,2.35
2023-03-24T20:23:00.988Z,2.15
2023-03-24T20:25:04.914Z,2.90
2023-03-24T20:27:08.671Z,1.98
2023-03-24T20:29:12.167Z,1.65
2023-03-24T20:31:15.469Z,1.98
2023-03-24T20:33:18.834Z,1.58
2023-03-24T20:35:22.509Z,1.58
2023-03-24T20:37:29.251Z,2.00
2023-03-24T20:39:33.871Z,1.65
2023-03-24T20:41:37.126Z,1.70
2023-03-24T20:43:40.303Z,1.50
2023-03-24T20:45:43.538Z,1.80
2023-03-24T20:47:47.222Z,1.67
2023-03-24T20:49:50.579Z,1.60
2023-03-24T20:51:54.032Z,1.67
2023-03-24T20:53:57.799Z,1.98
2023-03-24T20:56:04.376Z,1.60
2023-03-24T20:58:08.373Z,1.92
2023-03-24T21:00:14.326Z,1.80
2023-03-24T21:02:18.985Z,1.52
2023-03-24T21:04:22.317Z,1.70
2023-03-24T21:06:25.525Z,1.92
2023-03-24T21:08:28.979Z,2.28
2023-03-24T21:10:32.360Z,2.10
2023-03-24T21:12:52.760Z,2.03
2023-03-24T21:14:57.627Z,2.40
2023-03-24T21:17:00.889Z,1.70
2023-03-24T21:19:04.216Z,1.70
2023-03-24T21:21:12.334Z,2.17
2023-03-24T21:23:18.569Z,1.70
2023-03-24T21:25:22.267Z,1.98
2023-03-24T21:27:25.490Z,1.63
2023-03-24T21:29:30.091Z,2.20
2023-03-24T21:31:33.286Z,2.20
2023-03-24T21:33:39.980Z,1.80
2023-03-24T21:35:43.300Z,1.90
2023-03-24T21:37:47.747Z,2.38
2023-03-24T21:39:51.389Z,2.08
2023-03-24T21:41:54.790Z,2.28
2023-03-24T21:44:00.742Z,2.67
2023-03-24T21:46:06.734Z,2.60
2023-03-24T21:48:14.035Z,2.30
2023-03-24T21:50:23.122Z,2.20
2023-03-24T21:52:29.510Z,2.55
2023-03-24T21:54:33.396Z,2.53
2023-03-24T21:56:37.995Z,2.45
2023-03-24T21:58:41.611Z,2.53
2023-03-24T22:00:46.330Z,2.50
2023-03-24T22:02:52.752Z,2.15
2023-03-24T22:05:01.526Z,2.28
2023-03-24T22:07:07.330Z,1.90
2023-03-24T22:09:11.193Z,1.70
2023-03-24T22:11:15.436Z,2.00
2023-03-24T22:13:18.611Z,1.98
2023-03-24T22:15:22.458Z,2.03
2023-03-24T22:17:25.816Z,2.15
2023-03-24T22:19:30.603Z,2.20
2023-03-24T22:21:33.925Z,2.03
2023-03-24T22:23:39.712Z,1.90
2023-03-24T22:25:43.417Z,2.00
2023-03-24T22:27:50.085Z,2.08
2023-03-24T22:29:55.405Z,1.80
2023-03-24T22:31:58.679Z,1.95
2023-03-24T22:34:01.873Z,1.83
2023-03-24T22:36:07.640Z,2.20
2023-03-24T22:38:14.909Z,2.28
2023-03-24T22:40:18.181Z,2.50
2023-03-24T22:42:22.140Z,2.30
2023-03-24T22:44:25.396Z,2.08
2023-03-24T22:46:28.581Z,2.50
2023-03-24T22:48:31.959Z,2.35
2023-03-24T22:50:35.439Z,2.80
2023-03-24T22:52:40.084Z,2.30
2023-03-24T22:54:43.313Z,2.60
2023-03-24T22:56:46.647Z,2.30
2023-03-24T22:58:49.874Z,2.40
2023-03-24T23:00:56.805Z,2.30
2023-03-24T23:03:00.140Z,3.47
2023-03-24T23:05:03.477Z,2.85
2023-03-24T23:07:07.693Z,3.10
2023-03-24T23:09:12.366Z,2.90
2023-03-24T23:11:15.737Z,2.75
2023-03-24T23:13:18.940Z,3.10
2023-03-24T23:15:23.338Z,3.20
2023-03-24T23:17:26.983Z,3.70
2023-03-24T23:19:33.226Z,4.65
2023-03-24T23:21:37.290Z,4.38
2023-03-24T23:23:42.063Z,3.28
2023-03-24T23:25:46.797Z,3.92
2023-03-24T23:27:50.103Z,3.70
2023-03-24T23:29:53.380Z,4.07
2023-03-24T23:31:56.664Z,3.80
2023-03-24T23:34:00.353Z,4.25
2023-03-24T23:36:04.418Z,4.40
2023-03-24T23:38:07.791Z,4.60
2023-03-24T23:40:15.014Z,3.95
2023-03-24T23:42:19.841Z,4.53
2023-03-24T23:44:23.110Z,4.40
2023-03-24T23:46:26.496Z,4.53
2023-03-24T23:48:32.367Z,4.32
2023-03-24T23:50:35.624Z,4.47
2023-03-24T23:52:41.255Z,4.90
2023-03-24T23:54:44.578Z,4.82
2023-03-24T23:56:47.794Z,5.22
2023-03-24T23:58:52.415Z,4.68
